Time;durP1;ratioP1;P1;durP2;ratioP2;P2;SDS_P1;SDS_P2;PMS_P1;PMS_P2;Temp;Humidity;BMP_temperature;BMP_pressure;BME280_temperature;BME280_humidity;BME280_pressure;Samples;Min_cycle;Max_cycle;Signal;HPM_P1;HPM_P2
2022/12/15 00:40:13;;;;;;;8.73;6.57;;;14.60;61.20;;;;;;4143003;28;20611;-60
2022/12/15 00:42:54;;;;;;;8.60;6.25;;;14.60;61.30;;;;;;4145202;28;20415;-59
2022/12/15 00:48:30;;;;;;;6.75;5.57;;;14.80;61.00;;;;;;4154173;28;20059;-60
2022/12/15 00:51:10;;;;;;;6.05;5.20;;;14.80;60.90;;;;;;4163901;28;20123;-60
2022/12/15 01:20:45;;;;;;;10.32;6.20;;;14.90;60.60;;;;;;4158296;28;20098;-60
2022/12/15 01:23:26;;;;;;;8.23;6.23;;;14.90;60.40;;;;;;4142826;28;20413;-59
2022/12/15 01:26:09;;;;;;;11.52;6.15;;;14.80;60.40;;;;;;4142780;28;20119;-59
2022/12/15 01:28:50;;;;;;;7.45;5.20;;;14.80;60.40;;;;;;4156726;28;20413;-59
2022/12/15 01:31:31;;;;;;;6.43;5.50;;;14.80;60.40;;;;;;4158975;28;20095;-59
2022/12/15 01:34:12;;;;;;;6.75;5.53;;;14.70;60.60;;;;;;4159103;28;20187;-59
2022/12/15 01:36:53;;;;;;;5.07;4.57;;;14.70;60.90;;;;;;4159398;28;20052;-60
2022/12/15 01:42:30;;;;;;;5.03;4.50;;;14.60;61.40;;;;;;4142380;28;20053;-59
2022/12/15 01:45:50;;;;;;;7.18;4.38;;;14.70;61.00;;;;;;4142717;28;20061;-59
2022/12/15 01:48:39;;;;;;;5.35;4.28;;;14.80;60.50;;;;;;4155642;28;20052;-59
2022/12/15 01:51:26;;;;;;;5.22;4.72;;;14.80;60.60;;;;;;4151932;28;20550;-59
2022/12/15 01:54:12;;;;;;;5.82;4.47;;;14.90;60.50;;;;;;4158878;28;20048;-60
2022/12/15 01:56:56;;;;;;;5.55;4.47;;;14.90;60.40;;;;;;4141656;28;20057;-59
2022/12/15 01:59:42;;;;;;;5.07;4.50;;;15.00;60.50;;;;;;4142660;28;20080;-59
2022/12/15 02:02:26;;;;;;;7.35;4.43;;;15.00;60.20;;;;;;4147608;28;20164;-59
2022/12/15 02:05:09;;;;;;;6.10;5.00;;;15.00;60.20;;;;;;4157288;28;20055;-59
2022/12/15 02:07:50;;;;;;;7.68;5.88;;;15.10;60.00;;;;;;4158730;28;20049;-59
2022/12/15 02:10:45;;;;;;;7.50;4.80;;;15.10;59.80;;;;;;4158846;28;20135;-60
2022/12/15 02:13:32;;;;;;;7.70;5.13;;;15.10;59.90;;;;;;4158931;28;20520;-61
2022/12/15 02:16:24;;;;;;;7.22;5.35;;;15.00;60.00;;;;;;4158120;28;20068;-62
2022/12/15 02:19:28;;;;;;;6.60;5.18;;;15.00;59.90;;;;;;4158590;28;20056;-61
2022/12/15 02:22:23;;;;;;;6.18;4.85;;;15.10;59.90;;;;;;4158713;28;20503;-61
2022/12/15 02:25:20;;;;;;;6.25;4.88;;;15.10;59.80;;;;;;4158304;28;20057;-61
2022/12/15 02:28:06;;;;;;;7.60;4.88;;;15.10;59.80;;;;;;4157850;28;20065;-61
2022/12/15 02:31:48;;;;;;;5.80;4.63;;;15.00;59.80;;;;;;4158143;28;20103;-61
2022/12/15 02:34:00;;;;;;;6.00;4.90;;;15.00;59.80;;;;;;4159635;28;20455;-61
2022/12/15 02:36:44;;;;;;;6.53;4.88;;;14.90;61.10;;;;;;4145192;28;20060;-61
2022/12/15 02:39:25;;;;;;;5.78;4.53;;;14.90;60.40;;;;;;4145535;28;20052;-61
2022/12/15 02:42:08;;;;;;;6.45;4.15;;;14.90;60.50;;;;;;4145373;28;20045;-61
2022/12/15 02:44:53;;;;;;;5.28;4.22;;;14.90;60.40;;;;;;4153026;28;20071;-61
2022/12/15 02:47:44;;;;;;;4.93;4.20;;;14.90;60.40;;;;;;4161309;28;20401;-61
2022/12/15 02:50:47;;;;;;;7.07;4.72;;;14.90;60.40;;;;;;4161763;28;20061;-62
2022/12/15 02:54:03;;;;;;;4.57;4.15;;;14.90;60.20;;;;;;4161491;28;20532;-59
2022/12/15 02:56:55;;;;;;;5.03;4.00;;;14.90;60.50;;;;;;4151627;28;20408;-59
2022/12/15 02:59:42;;;;;;;6.50;3.90;;;14.90;60.40;;;;;;4161007;28;20052;-59
2022/12/15 03:02:26;;;;;;;4.53;4.03;;;14.90;60.50;;;;;;4161457;28;20118;-59
2022/12/15 03:05:09;;;;;;;3.67;3.38;;;14.90;60.40;;;;;;4160905;28;20060;-60
2022/12/15 03:07:51;;;;;;;5.72;3.97;;;14.80;60.40;;;;;;4161449;28;20618;-59
2022/12/15 03:10:33;;;;;;;4.72;3.90;;;14.90;60.60;;;;;;4161530;28;20071;-59
2022/12/15 03:13:14;;;;;;;3.58;3.30;;;15.00;60.50;;;;;;4161185;28;20060;-59
2022/12/15 03:15:54;;;;;;;4.53;3.23;;;15.00;60.40;;;;;;4144658;28;20128;-60
2022/12/15 03:18:35;;;;;;;3.50;3.20;;;15.00;60.30;;;;;;4144608;28;20700;-60
2022/12/15 03:21:17;;;;;;;6.13;3.42;;;15.00;60.30;;;;;;4144933;28;20048;-60
2022/12/15 03:23:58;;;;;;;4.68;3.55;;;15.00;60.20;;;;;;4150510;28;20056;-61
2022/12/15 03:26:39;;;;;;;6.07;3.35;;;15.10;60.10;;;;;;4161249;28;20056;-61
2022/12/15 03:29:20;;;;;;;3.83;3.42;;;15.10;59.90;;;;;;4160990;28;20049;-61
2022/12/15 03:32:01;;;;;;;3.53;3.22;;;15.20;59.30;;;;;;4159928;28;20184;-60
2022/12/15 03:34:42;;;;;;;3.42;3.03;;;15.20;59.30;;;;;;4160449;28;20076;-59
2022/12/15 03:37:25;;;;;;;6.25;3.30;;;15.20;59.60;;;;;;4159815;28;20530;-59
2022/12/15 03:40:06;;;;;;;3.58;2.67;;;15.30;60.20;;;;;;4160591;28;20052;-60
2022/12/15 03:42:47;;;;;;;3.42;3.10;;;15.30;59.30;;;;;;4159732;28;20077;-60
2022/12/15 03:45:29;;;;;;;4.47;3.03;;;15.30;59.30;;;;;;4157990;28;20508;-59
2022/12/15 03:48:10;;;;;;;6.07;3.42;;;15.30;59.30;;;;;;4160839;28;20404;-59
2022/12/15 03:50:51;;;;;;;3.53;2.60;;;15.30;59.30;;;;;;4160322;28;20126;-59
2022/12/15 03:53:33;;;;;;;4.78;3.05;;;15.20;59.30;;;;;;4158465;28;20068;-60
2022/12/15 03:56:14;;;;;;;3.75;2.85;;;15.20;59.30;;;;;;4144257;28;20061;-59
2022/12/15 03:58:55;;;;;;;7.82;3.20;;;15.10;59.50;;;;;;4144197;28;20053;-60
2022/12/15 04:01:37;;;;;;;5.10;3.25;;;15.20;59.80;;;;;;4144120;28;20179;-60
2022/12/15 04:04:17;;;;;;;;;;;15.20;59.60;;;;;;4152380;28;20452;-60
2022/12/15 04:06:58;;;;;;;6.28;3.03;;;15.30;59.60;;;;;;4160249;28;19935;-59
2022/12/15 04:09:41;;;;;;;4.95;3.30;;;15.30;59.50;;;;;;4160585;28;20084;-60
2022/12/15 04:12:22;;;;;;;3.78;3.15;;;15.30;59.40;;;;;;4159892;28;20520;-59
2022/12/15 04:15:03;;;;;;;3.28;2.97;;;15.30;59.50;;;;;;4159745;28;20072;-60
2022/12/15 04:17:44;;;;;;;3.10;2.80;;;15.30;59.50;;;;;;4159652;28;20045;-60
2022/12/15 04:20:25;;;;;;;4.00;2.78;;;15.40;59.30;;;;;;4159861;28;20053;-60
2022/12/15 04:23:06;;;;;;;3.83;3.00;;;15.40;59.20;;;;;;4159569;28;20102;-59
2022/12/15 05:34:20;;;;;;;5.05;4.20;;;15.20;59.80;;;;;;4157293;28;20513;-60
2022/12/15 05:37:05;;;;;;;4.35;3.90;;;15.20;59.70;;;;;;4159345;28;20428;-60
2022/12/15 05:39:46;;;;;;;4.05;3.65;;;15.30;59.60;;;;;;4159252;28;20048;-60
2022/12/15 05:42:27;;;;;;;5.55;3.58;;;15.30;59.30;;;;;;4157989;28;20052;-62
2022/12/15 05:45:09;;;;;;;5.13;4.68;;;15.40;59.20;;;;;;4142947;28;20196;-60
2022/12/15 05:47:51;;;;;;;9.75;6.82;;;15.40;59.00;;;;;;4142915;28;20061;-61
2022/12/15 05:50:31;;;;;;;7.40;4.70;;;15.40;59.10;;;;;;4142860;28;20052;-62
2022/12/15 05:53:14;;;;;;;4.27;3.47;;;15.50;59.00;;;;;;4149831;28;20556;-61
2022/12/15 05:56:01;;;;;;;5.53;3.55;;;15.50;58.90;;;;;;4157829;28;20180;-63
2022/12/15 05:58:42;;;;;;;4.75;3.40;;;15.50;58.90;;;;;;4158892;28;20102;-60
2022/12/15 06:01:26;;;;;;;5.78;3.28;;;15.50;59.00;;;;;;4158645;28;20156;-59
2022/12/15 06:04:07;;;;;;;6.97;3.33;;;15.50;59.00;;;;;;4142495;28;20188;-59
2022/12/15 06:06:48;;;;;;;4.47;3.40;;;15.60;58.80;;;;;;4142616;28;20184;-59
2022/12/15 06:09:30;;;;;;;4.25;3.20;;;15.60;58.70;;;;;;4144650;28;20160;-59
2022/12/15 06:12:11;;;;;;;5.07;3.10;;;15.60;58.60;;;;;;4155787;28;20064;-60
2022/12/15 06:14:52;;;;;;;4.72;2.88;;;15.50;58.80;;;;;;4161860;28;20099;-59
2022/12/15 06:17:33;;;;;;;6.07;3.00;;;15.50;58.80;;;;;;4161017;28;20111;-60
2022/12/15 06:20:14;;;;;;;4.45;2.92;;;15.40;59.00;;;;;;4162044;28;20104;-60
2022/12/15 06:22:54;;;;;;;3.53;3.20;;;15.40;59.40;;;;;;4155067;28;20064;-59
2022/12/15 06:25:37;;;;;;;3.83;3.15;;;15.30;60.30;;;;;;4160638;28;20054;-59
2022/12/15 06:28:22;;;;;;;5.07;3.65;;;15.20;59.50;;;;;;4161669;28;20072;-60
2022/12/15 06:31:05;;;;;;;5.15;3.28;;;15.20;59.60;;;;;;4158298;28;21719;-60
2022/12/15 06:33:46;;;;;;;5.85;3.63;;;15.20;59.70;;;;;;4163906;28;20192;-65
2022/12/15 06:36:27;;;;;;;4.00;3.42;;;15.20;59.80;;;;;;4160985;28;20057;-64
2022/12/15 06:39:11;;;;;;;5.72;2.65;;;15.20;59.80;;;;;;4159887;28;20126;-62
2022/12/15 06:41:53;;;;;;;5.43;2.85;;;15.30;59.80;;;;;;4160871;28;20047;-62
2022/12/15 06:44:33;;;;;;;3.67;2.95;;;15.30;59.60;;;;;;4161176;28;20052;-61
2022/12/15 06:47:14;;;;;;;4.90;3.20;;;15.30;59.60;;;;;;4161421;28;20053;-60
2022/12/15 06:49:55;;;;;;;4.32;3.00;;;15.30;59.60;;;;;;4161461;28;20049;-60
2022/12/15 06:52:36;;;;;;;5.30;3.08;;;15.30;59.50;;;;;;4154303;28;20515;-60
2022/12/15 06:55:18;;;;;;;7.13;3.10;;;15.20;59.60;;;;;;4161297;28;20127;-60
2022/12/15 06:58:00;;;;;;;4.13;3.03;;;15.10;59.80;;;;;;4160286;28;20080;-62
2022/12/15 07:00:42;;;;;;;3.25;2.95;;;15.00;60.20;;;;;;4161240;28;20067;-63
2022/12/15 07:03:23;;;;;;;4.40;2.83;;;14.90;60.80;;;;;;4161035;28;20049;-62
2022/12/15 07:06:07;;;;;;;3.67;2.90;;;14.90;61.40;;;;;;4161141;28;20499;-62
2022/12/15 07:08:52;;;;;;;3.42;2.67;;;14.90;61.40;;;;;;4157280;28;20126;-60
2022/12/15 07:11:33;;;;;;;8.02;3.53;;;15.00;61.20;;;;;;4144469;28;20112;-60
2022/12/15 07:14:15;;;;;;;5.43;3.13;;;15.00;60.90;;;;;;4150216;28;20040;-60
2022/12/15 07:16:56;;;;;;;6.68;2.92;;;15.10;60.50;;;;;;4160874;28;20064;-60
2022/12/15 07:19:37;;;;;;;5.20;3.15;;;15.30;60.20;;;;;;4144338;28;20448;-60
2022/12/15 07:22:19;;;;;;;3.15;2.88;;;15.40;59.80;;;;;;4144886;28;20053;-60
2022/12/15 07:25:00;;;;;;;6.50;3.40;;;15.40;59.50;;;;;;4144326;28;20628;-60
2022/12/15 07:27:42;;;;;;;3.85;3.05;;;15.50;59.30;;;;;;4147557;28;20060;-60
2022/12/15 07:30:25;;;;;;;3.25;2.70;;;15.50;59.00;;;;;;4151156;28;20053;-60
2022/12/15 07:33:06;;;;;;;6.72;3.40;;;15.60;59.00;;;;;;4160507;28;20593;-60
2022/12/15 07:35:53;;;;;;;8.48;3.03;;;15.70;58.60;;;;;;4159853;28;20214;-61
2022/12/15 07:38:34;;;;;;;9.25;3.83;;;15.70;58.10;;;;;;4160765;28;20099;-60
2022/12/15 07:41:15;;;;;;;4.00;3.10;;;15.60;57.70;;;;;;4159504;28;20171;-60
2022/12/15 07:43:56;;;;;;;3.97;2.97;;;15.70;57.30;;;;;;4160454;28;20185;-61
2022/12/15 07:46:39;;;;;;;3.85;3.13;;;15.70;56.90;;;;;;4160819;28;20065;-61
2022/12/15 07:49:20;;;;;;;5.97;3.28;;;15.70;56.30;;;;;;4144285;28;20611;-61
2022/12/15 07:52:01;;;;;;;4.53;3.50;;;15.70;56.20;;;;;;4153853;28;20064;-61
2022/12/15 07:54:42;;;;;;;6.72;3.55;;;15.60;56.20;;;;;;4144003;28;20065;-61
2022/12/15 07:57:23;;;;;;;4.53;3.13;;;15.60;55.90;;;;;;4160053;28;20503;-64
2022/12/15 08:00:05;;;;;;;5.00;3.47;;;15.60;55.70;;;;;;4159273;28;20056;-66
2022/12/15 08:02:52;;;;;;;4.05;3.17;;;15.60;55.20;;;;;;4159312;28;20067;-64
2022/12/15 08:05:33;;;;;;;4.07;3.67;;;15.50;54.90;;;;;;4159625;28;20535;-64
2022/12/15 08:08:14;;;;;;;5.70;3.67;;;15.50;55.00;;;;;;4160238;28;20701;-64
2022/12/15 08:10:55;;;;;;;5.90;3.60;;;15.50;54.80;;;;;;4159087;28;20052;-64
2022/12/15 08:13:37;;;;;;;6.80;3.77;;;15.60;54.70;;;;;;4159683;28;20067;-64
2022/12/15 08:16:38;;;;;;;;;;;15.60;54.70;;;;;;4160290;28;20311;-64
2022/12/15 08:19:21;;;;;;;4.63;3.42;;;15.50;54.60;;;;;;4159803;28;19931;-65
2022/12/15 08:22:02;;;;;;;3.70;3.15;;;15.40;54.50;;;;;;4159915;28;20380;-64
2022/12/15 08:24:43;;;;;;;9.55;3.55;;;15.30;54.60;;;;;;4159745;28;20060;-64
2022/12/15 08:27:26;;;;;;;4.47;2.80;;;15.30;54.60;;;;;;4159504;28;20056;-64
2022/12/15 08:30:08;;;;;;;3.67;3.35;;;15.30;54.40;;;;;;4159925;28;20052;-64
2022/12/15 08:32:50;;;;;;;4.85;2.97;;;15.30;54.10;;;;;;4158637;28;20112;-64
2022/12/15 08:35:33;;;;;;;5.93;4.13;;;15.40;53.90;;;;;;4159720;28;20052;-64
2022/12/15 08:38:35;;;;;;;7.25;4.47;;;15.40;53.70;;;;;;4159812;28;20056;-64
2022/12/15 08:41:18;;;;;;;6.43;3.78;;;15.40;53.30;;;;;;4159945;28;20400;-66
2022/12/15 08:44:01;;;;;;;10.43;3.80;;;15.40;53.20;;;;;;4141015;28;20601;-65
2022/12/15 08:46:42;;;;;;;12.23;4.57;;;15.30;54.00;;;;;;4150982;28;20056;-60
2022/12/15 08:49:23;;;;;;;12.60;3.90;;;15.30;53.20;;;;;;4141757;28;20404;-60
2022/12/15 08:52:05;;;;;;;7.15;3.78;;;15.40;53.10;;;;;;4146384;28;20413;-60
2022/12/15 08:54:47;;;;;;;5.82;3.78;;;15.40;53.10;;;;;;4141141;28;20057;-61
2022/12/15 08:57:28;;;;;;;6.53;3.85;;;15.40;53.00;;;;;;4157097;28;20545;-60
2022/12/15 09:00:10;;;;;;;6.25;4.15;;;15.40;52.90;;;;;;4150660;28;20187;-60
2022/12/15 09:02:51;;;;;;;5.32;3.58;;;15.40;52.30;;;;;;4146616;28;20127;-61
2022/12/15 09:05:34;;;;;;;7.15;4.07;;;15.40;52.00;;;;;;4140922;28;20091;-60
2022/12/15 09:08:17;;;;;;;6.15;3.28;;;15.40;51.80;;;;;;4141224;28;20061;-60
2022/12/15 09:10:58;;;;;;;7.18;4.10;;;15.30;51.90;;;;;;4156467;28;20423;-60
2022/12/15 09:13:40;;;;;;;5.47;3.92;;;15.30;51.80;;;;;;4145325;28;20080;-60
2022/12/15 09:16:22;;;;;;;6.18;3.67;;;15.30;51.70;;;;;;4147445;28;20053;-60
2022/12/15 09:19:04;;;;;;;7.30;3.58;;;15.20;51.80;;;;;;4144503;28;20060;-61
2022/12/15 09:21:44;;;;;;;7.55;4.22;;;15.00;51.80;;;;;;4149360;28;20056;-61
2022/12/15 09:24:28;;;;;;;7.53;4.40;;;15.00;51.80;;;;;;4150039;28;20053;-61
2022/12/15 09:27:14;;;;;;;5.47;3.42;;;14.90;51.60;;;;;;4147878;28;20496;-61
2022/12/15 09:29:56;;;;;;;4.88;3.40;;;14.90;51.70;;;;;;4153142;28;20130;-60
2022/12/15 09:32:36;;;;;;;5.50;3.83;;;14.90;51.90;;;;;;4140919;28;20473;-60
2022/12/15 09:35:17;;;;;;;8.63;4.75;;;14.80;52.60;;;;;;4145221;28;20590;-62
2022/12/15 09:37:58;;;;;;;8.18;3.95;;;14.80;51.90;;;;;;4157120;28;20110;-61
2022/12/15 09:40:41;;;;;;;3.60;3.30;;;14.70;51.90;;;;;;4140734;28;20056;-61
2022/12/15 09:43:26;;;;;;;7.53;4.55;;;14.70;52.10;;;;;;4151744;28;20052;-60
2022/12/15 09:46:26;;;;;;;9.90;4.28;;;14.60;52.20;;;;;;4158493;28;20503;-61
2022/12/15 09:49:16;;;;;;;4.68;2.95;;;14.60;52.40;;;;;;4153359;28;20488;-61
2022/12/15 09:52:03;;;;;;;5.28;3.67;;;14.60;52.30;;;;;;4155648;28;20116;-61
2022/12/15 09:54:50;;;;;;;7.30;4.25;;;14.70;52.40;;;;;;4146756;28;20119;-61
2022/12/15 09:57:37;;;;;;;5.50;3.25;;;14.80;52.50;;;;;;4147722;28;20080;-61
2022/12/15 10:00:21;;;;;;;6.18;3.65;;;14.80;52.40;;;;;;4150048;28;20064;-61
2022/12/15 10:03:23;;;;;;;6.45;3.90;;;14.80;52.10;;;;;;4143096;28;20099;-61
2022/12/15 10:06:13;;;;;;;6.53;3.78;;;14.70;52.00;;;;;;4153208;28;20184;-61
2022/12/15 10:09:22;;;;;;;5.32;3.85;;;14.70;52.00;;;;;;4143725;28;20068;-61
2022/12/15 10:12:07;;;;;;;8.70;3.95;;;14.80;51.90;;;;;;4156245;28;20200;-61
2022/12/15 10:14:55;;;;;;;2.40;1.60;;;14.80;51.30;;;;;;4153192;28;20510;-60
2022/12/15 10:17:47;;;;;;;3.30;3.00;;;14.80;51.00;;;;;;4144304;28;20176;-61
2022/12/15 10:20:30;;;;;;;3.95;3.53;;;14.80;50.70;;;;;;4145495;28;20107;-61
2022/12/15 10:23:13;;;;;;;4.70;3.67;;;14.90;50.80;;;;;;4155140;28;20076;-61
2022/12/15 10:26:01;;;;;;;6.50;3.53;;;14.80;50.60;;;;;;4144084;28;20065;-61
2022/12/15 10:29:02;;;;;;;7.43;4.13;;;14.90;50.80;;;;;;4146066;28;20064;-60
2022/12/15 10:31:50;;;;;;;6.82;3.60;;;14.90;51.00;;;;;;4157631;28;20060;-61
2022/12/15 10:34:34;;;;;;;3.45;2.58;;;14.90;50.90;;;;;;4155120;28;20535;-61
2022/12/15 10:37:18;;;;;;;8.25;4.45;;;15.00;50.80;;;;;;4147524;28;20509;-60
2022/12/15 10:40:00;;;;;;;6.40;3.85;;;15.00;50.60;;;;;;4146177;28;20057;-60
2022/12/15 10:42:46;;;;;;;7.75;3.97;;;15.00;50.60;;;;;;4147251;28;20126;-61
2022/12/15 10:45:37;;;;;;;5.63;4.13;;;15.00;50.40;;;;;;4156717;28;20076;-61
2022/12/15 10:48:20;;;;;;;9.70;4.18;;;15.00;50.30;;;;;;4154024;28;21018;-60
2022/12/15 10:51:15;;;;;;;7.47;3.78;;;15.00;50.10;;;;;;4151658;28;20135;-61
2022/12/15 10:54:05;;;;;;;7.13;3.92;;;14.90;50.20;;;;;;4142368;28;20060;-61
2022/12/15 10:56:49;;;;;;;7.57;4.43;;;14.80;50.40;;;;;;4142964;28;20056;-61
2022/12/15 10:59:33;;;;;;;6.95;3.97;;;14.80;50.60;;;;;;4143573;28;20056;-61
2022/12/15 11:02:27;;;;;;;4.63;3.50;;;14.80;50.70;;;;;;4152487;28;20061;-61
2022/12/15 11:05:16;;;;;;;9.30;4.45;;;14.70;50.70;;;;;;4143285;28;20056;-59
2022/12/15 11:08:15;;;;;;;7.57;4.32;;;14.70;51.10;;;;;;4142837;28;20879;-61
2022/12/15 11:14:06;;;;;;;6.55;4.22;;;14.70;52.30;;;;;;4156201;28;20508;-62
2022/12/15 11:16:50;;;;;;;5.00;4.05;;;14.80;52.50;;;;;;4144887;28;20112;-62
2022/12/15 11:19:37;;;;;;;5.18;3.97;;;14.80;52.70;;;;;;4142664;28;20572;-63
2022/12/15 11:22:27;;;;;;;4.38;3.63;;;14.80;53.00;;;;;;4142573;28;20123;-62
2022/12/15 11:25:20;;;;;;;5.75;3.78;;;14.80;53.40;;;;;;4145617;28;20053;-62
2022/12/15 11:28:06;;;;;;;5.20;3.80;;;14.80;53.80;;;;;;4142331;28;20710;-62
2022/12/15 11:30:54;;;;;;;6.57;4.00;;;14.80;54.20;;;;;;4148797;28;20120;-62
2022/12/15 11:33:35;;;;;;;4.18;3.60;;;14.80;54.40;;;;;;4145171;28;20057;-62
2022/12/15 11:36:25;;;;;;;8.77;4.33;;;14.90;54.50;;;;;;4149881;28;20168;-62
2022/12/15 11:39:20;;;;;;;3.83;3.47;;;15.00;54.40;;;;;;4142300;28;20095;-62
2022/12/15 11:42:09;;;;;;;5.57;3.83;;;15.10;54.30;;;;;;4156647;28;20056;-62
2022/12/15 11:44:59;;;;;;;6.47;3.97;;;15.20;54.20;;;;;;4159378;28;20123;-62
2022/12/15 11:47:47;;;;;;;6.47;4.00;;;15.20;54.30;;;;;;4159894;28;20076;-62
2022/12/15 11:50:31;;;;;;;6.80;3.88;;;15.20;54.40;;;;;;4160724;28;20103;-62
2022/12/15 11:53:29;;;;;;;7.60;4.40;;;15.30;54.50;;;;;;4160499;28;20072;-62
2022/12/15 11:56:22;;;;;;;6.82;4.18;;;15.40;54.50;;;;;;4147731;28;20052;-62
2022/12/15 11:59:36;;;;;;;7.32;4.50;;;15.40;54.40;;;;;;4159006;28;20100;-62
2022/12/15 12:02:43;;;;;;;5.90;4.47;;;15.50;54.30;;;;;;4144073;28;20060;-62
2022/12/15 12:05:38;;;;;;;6.68;3.88;;;15.50;54.40;;;;;;4143860;28;20450;-63
2022/12/15 12:08:31;;;;;;;5.00;4.13;;;15.50;54.50;;;;;;4154076;28;20123;-63
2022/12/15 12:11:16;;;;;;;6.72;3.78;;;15.50;54.60;;;;;;4143691;28;20103;-63
2022/12/15 12:14:11;;;;;;;6.45;4.57;;;15.50;54.70;;;;;;4143464;28;20427;-63
2022/12/15 12:17:02;;;;;;;6.10;4.40;;;15.60;54.70;;;;;;4143310;28;20535;-63
2022/12/15 12:19:49;;;;;;;4.07;3.50;;;15.70;54.60;;;;;;4148773;28;20363;-63
2022/12/15 12:22:35;;;;;;;6.13;3.28;;;15.70;54.80;;;;;;4147015;28;20053;-68
2022/12/15 12:25:19;;;;;;;6.50;3.55;;;15.70;55.20;;;;;;4144527;28;20053;-68
2022/12/15 12:28:05;;;;;;;8.27;3.67;;;15.70;55.40;;;;;;4145927;28;20056;-68
2022/12/15 12:30:47;;;;;;;8.07;3.92;;;15.70;55.40;;;;;;4152914;28;20508;-67
2022/12/15 12:33:55;;;;;;;6.88;4.10;;;15.70;55.40;;;;;;4141606;28;20057;-68
2022/12/15 12:36:37;;;;;;;4.68;3.55;;;15.60;55.50;;;;;;4154016;28;20176;-68
2022/12/15 12:39:21;;;;;;;6.43;3.92;;;15.60;55.70;;;;;;4154325;28;20370;-66
2022/12/15 12:42:10;;;;;;;7.65;3.78;;;15.60;55.70;;;;;;4144330;28;20088;-66
2022/12/15 12:44:52;;;;;;;7.10;4.00;;;15.60;55.60;;;;;;4153602;28;20056;-66
2022/12/15 12:47:36;;;;;;;7.60;4.25;;;15.60;55.60;;;;;;4141829;28;20060;-63
2022/12/15 12:50:20;;;;;;;6.70;3.60;;;15.50;55.60;;;;;;4144982;28;20058;-63
2022/12/15 12:53:03;;;;;;;6.43;3.78;;;15.50;55.80;;;;;;4149910;28;20052;-63
2022/12/15 12:55:44;;;;;;;8.35;3.88;;;15.40;56.00;;;;;;4146064;28;20061;-63
2022/12/15 12:58:33;;;;;;;9.48;3.92;;;15.30;56.30;;;;;;4150324;28;20048;-63
2022/12/15 13:01:25;;;;;;;6.65;3.50;;;15.20;56.50;;;;;;4144509;28;20056;-63
2022/12/15 13:04:10;;;;;;;6.30;3.63;;;15.10;56.90;;;;;;4148792;28;20095;-63
2022/12/15 13:07:04;;;;;;;7.03;2.97;;;15.00;57.40;;;;;;4148526;28;20052;-63
2022/12/15 13:10:02;;;;;;;6.38;3.90;;;15.10;57.40;;;;;;4150225;28;20059;-63
2022/12/15 13:12:48;;;;;;;4.28;3.22;;;15.20;57.40;;;;;;4145938;28;20106;-63
2022/12/15 13:15:37;;;;;;;6.43;3.45;;;15.20;57.90;;;;;;4148173;28;20080;-63
2022/12/15 13:18:23;;;;;;;5.32;3.42;;;15.30;57.10;;;;;;4152152;28;20059;-63
2022/12/15 13:21:35;;;;;;;5.10;3.55;;;15.20;57.10;;;;;;4152118;28;20052;-63
2022/12/15 13:24:22;;;;;;;;;;;15.20;57.20;;;;;;4154147;28;20388;-63
2022/12/15 13:27:14;;;;;;;7.60;3.33;;;15.20;57.60;;;;;;4151387;28;19932;-63
2022/12/15 13:30:01;;;;;;;6.13;3.33;;;15.10;57.60;;;;;;4140980;28;20124;-63
2022/12/15 13:32:45;;;;;;;4.88;3.85;;;15.10;57.70;;;;;;4147234;28;20053;-62
2022/12/15 13:35:33;;;;;;;6.20;3.90;;;15.10;57.90;;;;;;4140846;28;20057;-63
2022/12/15 13:38:18;;;;;;;8.20;4.07;;;15.10;58.10;;;;;;4146494;28;20060;-65
2022/12/15 13:41:00;;;;;;;10.38;3.53;;;15.00;58.20;;;;;;4142579;28;20053;-66
2022/12/15 13:43:45;;;;;;;5.28;3.65;;;15.00;58.30;;;;;;4148204;28;20484;-65
2022/12/15 13:46:32;;;;;;;9.40;4.28;;;15.00;58.50;;;;;;4141231;28;20504;-65
2022/12/15 13:49:16;;;;;;;8.38;4.18;;;14.90;58.60;;;;;;4144116;28;20397;-65
2022/12/15 13:52:02;;;;;;;7.60;4.10;;;14.90;58.90;;;;;;4141101;28;20135;-65
2022/12/15 13:54:51;;;;;;;8.30;4.35;;;14.80;59.00;;;;;;4147257;28;21015;-67
2022/12/15 13:57:49;;;;;;;6.35;4.43;;;14.70;59.30;;;;;;4147811;28;20184;-65
2022/12/15 14:00:31;;;;;;;8.90;4.35;;;14.70;59.50;;;;;;4141335;28;20052;-65
2022/12/15 14:03:12;;;;;;;7.32;4.40;;;14.60;59.80;;;;;;4144135;28;20123;-65
2022/12/15 14:05:55;;;;;;;12.32;4.90;;;14.50;60.20;;;;;;4151591;28;20794;-66
2022/12/15 14:08:37;;;;;;;7.53;4.63;;;14.40;60.30;;;;;;4145629;28;20060;-66
2022/12/15 14:11:23;;;;;;;7.40;5.05;;;14.30;60.60;;;;;;4149743;28;20491;-67
2022/12/15 14:14:29;;;;;;;7.20;4.70;;;14.30;60.90;;;;;;4143435;28;20116;-67
2022/12/15 14:17:15;;;;;;;12.30;5.15;;;14.20;61.30;;;;;;4146852;28;20143;-67
2022/12/15 14:19:55;;;;;;;7.60;5.25;;;14.20;61.60;;;;;;4140950;28;20397;-66
2022/12/15 14:22:41;;;;;;;8.93;6.00;;;14.10;61.70;;;;;;4152377;28;20484;-66
2022/12/15 14:25:24;;;;;;;6.43;4.50;;;14.00;61.80;;;;;;4143914;28;20045;-66
2022/12/15 14:28:26;;;;;;;7.20;4.20;;;14.00;62.10;;;;;;4140141;28;20501;-67
2022/12/15 14:31:15;;;;;;;8.38;4.68;;;13.90;62.00;;;;;;4148504;28;20136;-67
2022/12/15 14:34:02;;;;;;;6.05;3.00;;;13.90;62.40;;;;;;4161558;28;20122;-67
2022/12/15 14:36:44;;;;;;;7.22;3.60;;;13.90;62.80;;;;;;4171969;28;20451;-66
2022/12/15 14:39:30;;;;;;;10.25;3.95;;;13.90;63.00;;;;;;4161712;28;20134;-67
2022/12/15 14:42:18;;;;;;;7.90;3.35;;;14.00;62.90;;;;;;4160911;28;20060;-66
2022/12/15 14:44:59;;;;;;;8.07;4.60;;;14.10;62.70;;;;;;4161836;28;20869;-66
2022/12/15 14:47:51;;;;;;;5.30;4.13;;;14.20;62.50;;;;;;4161723;28;20072;-65
2022/12/15 14:50:52;;;;;;;10.95;4.53;;;14.30;62.50;;;;;;4143811;28;20782;-65
2022/12/15 14:53:36;;;;;;;6.47;4.20;;;14.40;62.30;;;;;;4145220;28;20512;-65
2022/12/15 14:56:26;;;;;;;9.60;3.88;;;14.50;61.90;;;;;;4145272;28;20061;-65
2022/12/15 14:59:19;;;;;;;10.27;4.82;;;14.70;61.40;;;;;;4156771;28;20052;-65
2022/12/15 15:02:10;;;;;;;7.50;4.20;;;14.80;60.90;;;;;;4160314;28;20115;-63
2022/12/15 15:05:25;;;;;;;10.63;4.35;;;14.80;60.60;;;;;;4161450;28;20288;-63
2022/12/15 15:08:06;;;;;;;8.60;4.82;;;15.00;60.60;;;;;;4160783;28;20127;-64
2022/12/15 15:10:47;;;;;;;8.88;4.50;;;15.10;60.90;;;;;;4161131;28;20532;-64
2022/12/15 15:13:39;;;;;;;10.15;4.95;;;15.20;60.60;;;;;;4160869;28;20122;-64
2022/12/15 15:16:20;;;;;;;5.40;4.50;;;15.30;60.40;;;;;;4160845;28;20056;-56
2022/12/15 15:19:03;;;;;;;8.23;4.07;;;15.30;60.20;;;;;;4144468;28;20099;-65
2022/12/15 15:21:47;;;;;;;10.27;5.05;;;15.30;60.00;;;;;;4144412;28;20128;-65
2022/12/15 15:24:34;;;;;;;7.68;4.35;;;15.20;60.10;;;;;;4159321;28;20144;-64
2022/12/15 15:27:27;;;;;;;7.35;4.32;;;15.20;60.60;;;;;;4160660;28;20057;-64
2022/12/15 15:30:20;;;;;;;6.70;4.70;;;15.30;60.70;;;;;;4160242;28;20060;-65
2022/12/15 15:33:01;;;;;;;8.25;5.35;;;15.40;60.20;;;;;;4159325;28;20115;-63
2022/12/15 15:35:43;;;;;;;10.68;6.07;;;15.40;60.10;;;;;;4159829;28;20048;-64
2022/12/15 15:38:28;;;;;;;7.18;5.25;;;15.40;59.90;;;;;;4160487;28;20056;-62
2022/12/15 15:41:16;;;;;;;7.95;5.25;;;15.50;59.90;;;;;;4160380;28;20060;-63
2022/12/15 15:43:58;;;;;;;8.68;5.57;;;15.50;59.80;;;;;;4158875;28;20068;-64
2022/12/15 15:46:46;;;;;;;7.30;4.90;;;15.50;59.60;;;;;;4160546;28;20060;-64
2022/12/15 15:49:27;;;;;;;7.40;5.05;;;15.50;59.60;;;;;;4159834;28;20135;-65
2022/12/15 15:52:10;;;;;;;10.38;5.25;;;15.50;59.80;;;;;;4159738;28;20053;-63
2022/12/15 15:54:53;;;;;;;8.10;5.00;;;15.40;59.90;;;;;;4160359;28;20060;-63
2022/12/15 15:57:34;;;;;;;9.30;5.47;;;15.30;60.10;;;;;;4160214;28;20055;-63
2022/12/15 16:00:18;;;;;;;10.80;5.72;;;15.20;60.40;;;;;;4159297;28;20060;-63
2022/12/15 16:02:59;;;;;;;6.95;5.60;;;15.10;60.70;;;;;;4160067;28;20519;-63
2022/12/15 16:05:41;;;;;;;8.90;6.25;;;15.10;61.20;;;;;;4160327;28;20119;-64
2022/12/15 16:08:26;;;;;;;11.15;6.00;;;15.20;61.20;;;;;;4159612;28;20104;-66
2022/12/15 16:11:11;;;;;;;8.05;5.50;;;15.50;60.30;;;;;;4158770;28;20041;-67
2022/12/15 16:13:51;;;;;;;9.45;6.32;;;16.00;59.20;;;;;;4158606;28;20063;-66
2022/12/15 16:16:33;;;;;;;9.03;6.30;;;16.40;58.10;;;;;;4159444;28;20163;-66
2022/12/15 16:19:13;;;;;;;6.72;5.90;;;16.80;56.90;;;;;;4159426;28;21129;-64
2022/12/15 16:21:55;;;;;;;9.65;6.40;;;17.30;55.70;;;;;;4159375;28;20099;-63
2022/12/15 16:24:36;;;;;;;7.70;5.43;;;17.60;54.60;;;;;;4158447;28;20052;-64
2022/12/15 16:27:19;;;;;;;9.73;6.30;;;18.00;53.70;;;;;;4147266;28;20048;-65
2022/12/15 16:29:59;;;;;;;7.22;5.75;;;18.20;53.10;;;;;;4158720;28;20107;-65
2022/12/15 16:32:40;;;;;;;8.05;5.85;;;18.40;52.60;;;;;;4155228;28;20064;-64
2022/12/15 16:35:23;;;;;;;11.05;6.35;;;18.40;52.30;;;;;;4152621;28;20122;-63
2022/12/15 16:38:05;;;;;;;10.73;7.03;;;18.40;52.20;;;;;;4159693;28;20076;-65
2022/12/15 16:40:45;;;;;;;9.13;7.30;;;18.30;52.40;;;;;;4159013;28;20057;-65
2022/12/15 16:43:28;;;;;;;6.85;5.78;;;18.10;52.70;;;;;;4159455;28;20052;-64
2022/12/15 16:46:16;;;;;;;9.73;6.75;;;18.00;53.10;;;;;;4159908;28;20052;-64